createdAt,value
2022-12-28T00:00:29.242Z,5.37
2022-12-28T00:01:29.211Z,5.37
2022-12-28T00:02:29.239Z,5.35
2022-12-28T00:03:29.199Z,5.37
2022-12-28T00:04:29.160Z,5.37
2022-12-28T00:05:29.162Z,5.37
2022-12-28T00:06:29.191Z,5.38
2022-12-28T00:07:29.145Z,5.38
2022-12-28T00:08:29.116Z,5.40
2022-12-28T00:09:29.118Z,5.45
2022-12-28T00:11:06.536Z,5.48
2022-12-28T00:11:30.980Z,5.46
2022-12-28T00:12:29.098Z,5.45
2022-12-28T00:13:29.088Z,5.45
2022-12-28T00:14:29.064Z,5.46
2022-12-28T00:15:29.094Z,5.49
2022-12-28T00:16:29.104Z,5.50
2022-12-28T00:17:29.037Z,5.53
2022-12-28T00:18:29.055Z,5.52
2022-12-28T00:19:29.035Z,5.50
2022-12-28T00:20:29.022Z,5.53
2022-12-28T00:21:29.022Z,5.52
2022-12-28T00:22:28.985Z,5.53
2022-12-28T00:23:28.987Z,5.52
2022-12-28T00:24:28.950Z,5.50
2022-12-28T00:25:28.955Z,5.50
2022-12-28T00:26:28.961Z,5.49
2022-12-28T00:27:28.933Z,5.49
2022-12-28T00:28:28.957Z,5.46
2022-12-28T00:29:28.958Z,5.49
2022-12-28T00:30:28.903Z,5.50
2022-12-28T00:31:28.956Z,5.53
2022-12-28T00:32:28.903Z,5.55
2022-12-28T00:33:28.900Z,5.56
2022-12-28T00:34:28.850Z,5.57
2022-12-28T00:35:28.871Z,5.57
2022-12-28T00:37:10.862Z,5.59
2022-12-28T00:37:28.846Z,5.55
2022-12-28T00:38:28.820Z,5.56
2022-12-28T00:39:28.823Z,5.57
2022-12-28T00:40:28.792Z,5.60
2022-12-28T00:41:28.792Z,5.60
2022-12-28T00:42:28.775Z,5.64
2022-12-28T00:43:28.805Z,5.66
2022-12-28T00:44:36.315Z,5.66
2022-12-28T00:45:36.290Z,5.63
2022-12-28T00:46:28.754Z,5.60
2022-12-28T00:47:28.775Z,5.63
2022-12-28T00:48:28.732Z,5.64
2022-12-28T00:49:28.709Z,5.60
2022-12-28T00:50:28.694Z,5.57
2022-12-28T00:51:28.705Z,5.55
2022-12-28T00:52:28.729Z,5.52
2022-12-28T00:53:28.696Z,5.52
2022-12-28T00:54:28.665Z,5.52
2022-12-28T00:55:28.698Z,5.49
2022-12-28T00:56:28.632Z,5.49
2022-12-28T00:57:28.670Z,5.48
2022-12-28T00:58:28.602Z,5.46
2022-12-28T00:59:28.613Z,5.46
2022-12-28T01:00:28.588Z,5.43
2022-12-28T01:01:28.679Z,5.43
2022-12-28T01:02:28.581Z,5.46
2022-12-28T01:03:28.589Z,5.45
2022-12-28T01:04:28.557Z,5.46
2022-12-28T01:05:28.553Z,5.46
2022-12-28T01:06:28.538Z,5.43
2022-12-28T01:07:28.546Z,5.43
2022-12-28T01:08:28.500Z,5.43
2022-12-28T01:09:28.529Z,5.40
2022-12-28T01:10:28.487Z,5.41
2022-12-28T01:11:28.505Z,5.40
2022-12-28T01:12:30.869Z,5.40
2022-12-28T01:13:28.485Z,5.38
2022-12-28T01:14:28.453Z,5.38
2022-12-28T01:15:28.450Z,5.38
2022-12-28T01:16:28.492Z,5.35
2022-12-28T01:17:28.430Z,5.38
2022-12-28T01:18:28.404Z,5.40
2022-12-28T01:19:28.415Z,5.37
2022-12-28T01:20:28.408Z,5.37
2022-12-28T01:21:28.399Z,5.35
2022-12-28T01:22:28.356Z,5.37
2022-12-28T01:23:28.360Z,5.37
2022-12-28T01:24:28.370Z,5.34
2022-12-28T01:25:28.345Z,5.31
2022-12-28T01:26:28.324Z,5.35
2022-12-28T01:27:28.331Z,5.38
2022-12-28T01:28:28.296Z,5.32
2022-12-28T01:29:28.348Z,5.32
2022-12-28T01:30:28.285Z,5.34
2022-12-28T01:31:28.306Z,5.34
2022-12-28T01:32:28.277Z,5.35
2022-12-28T01:33:28.253Z,5.37
2022-12-28T01:34:28.271Z,5.37
2022-12-28T01:35:28.224Z,5.35
2022-12-28T01:36:28.233Z,5.37
2022-12-28T01:37:28.214Z,5.34
2022-12-28T01:38:28.241Z,5.35
2022-12-28T01:39:28.212Z,5.35
2022-12-28T01:40:28.180Z,5.35
2022-12-28T01:41:28.238Z,5.34
2022-12-28T01:42:28.247Z,5.32
2022-12-28T01:43:29.779Z,5.30
2022-12-28T01:44:28.147Z,5.34
2022-12-28T01:45:28.172Z,5.32
2022-12-28T01:46:28.136Z,5.35
2022-12-28T01:47:28.111Z,5.34
2022-12-28T01:48:28.106Z,5.35
2022-12-28T01:49:28.104Z,5.34
2022-12-28T01:50:28.096Z,5.35
2022-12-28T01:51:28.087Z,5.32
2022-12-28T01:52:28.084Z,5.35
2022-12-28T01:53:28.043Z,5.40
2022-12-28T01:54:28.038Z,5.37
2022-12-28T01:55:28.042Z,5.35
2022-12-28T01:56:28.034Z,5.35
2022-12-28T01:57:28.040Z,5.35
2022-12-28T01:58:28.010Z,5.35
2022-12-28T01:59:27.991Z,5.35
2022-12-28T02:00:28.000Z,5.35
2022-12-28T02:01:28.052Z,5.34
2022-12-28T02:02:28.093Z,5.31
2022-12-28T02:03:27.963Z,5.31
2022-12-28T02:04:27.934Z,5.31
2022-12-28T02:05:27.933Z,5.34
2022-12-28T02:06:27.962Z,5.37
2022-12-28T02:07:27.892Z,5.35
2022-12-28T02:08:27.914Z,5.37
2022-12-28T02:09:27.901Z,5.35
2022-12-28T02:10:41.493Z,5.35
2022-12-28T02:11:27.900Z,5.37
2022-12-28T02:12:27.890Z,5.38
2022-12-28T02:13:27.919Z,5.38
2022-12-28T02:14:27.851Z,5.37
2022-12-28T02:15:27.829Z,5.38
2022-12-28T02:16:27.879Z,5.35
2022-12-28T02:17:27.806Z,5.35
2022-12-28T02:18:27.810Z,5.35
2022-12-28T02:19:27.784Z,5.37
2022-12-28T02:20:27.781Z,5.37
2022-12-28T02:21:27.771Z,5.38
2022-12-28T02:22:27.772Z,5.38
2022-12-28T02:23:27.738Z,5.38
2022-12-28T02:24:27.756Z,5.43
2022-12-28T02:25:27.726Z,5.43
2022-12-28T02:26:27.742Z,5.43
2022-12-28T02:27:27.702Z,5.46
2022-12-28T02:28:27.688Z,5.46
2022-12-28T02:29:27.706Z,5.48
2022-12-28T02:30:27.792Z,5.46
2022-12-28T02:31:27.667Z,5.45
2022-12-28T02:32:27.658Z,5.45
2022-12-28T02:33:27.671Z,5.45
2022-12-28T02:34:27.651Z,5.45
2022-12-28T02:35:27.634Z,5.45
2022-12-28T02:36:27.602Z,5.48
2022-12-28T02:37:27.617Z,5.46
2022-12-28T02:38:27.607Z,5.49
2022-12-28T02:39:27.605Z,5.48
2022-12-28T02:40:27.574Z,5.52
2022-12-28T02:41:27.570Z,5.52
2022-12-28T02:42:27.566Z,5.55
2022-12-28T02:43:27.553Z,5.55
2022-12-28T02:44:27.541Z,5.52
2022-12-28T02:45:27.536Z,5.53
2022-12-28T02:46:27.548Z,5.53
2022-12-28T02:47:27.528Z,5.57
2022-12-28T02:48:27.522Z,5.56
2022-12-28T02:49:27.482Z,5.56
2022-12-28T02:50:27.496Z,5.59
2022-12-28T02:51:27.521Z,5.57
2022-12-28T02:52:27.454Z,5.63
2022-12-28T02:53:27.436Z,5.64
2022-12-28T02:54:27.470Z,5.60
2022-12-28T02:55:27.422Z,5.66
2022-12-28T02:56:27.405Z,5.60
2022-12-28T02:57:27.388Z,5.60
2022-12-28T02:58:27.411Z,5.60
2022-12-28T02:59:27.325Z,5.64
2022-12-28T03:00:27.370Z,5.66
2022-12-28T03:01:27.430Z,5.63
2022-12-28T03:02:27.494Z,5.64
2022-12-28T03:03:27.359Z,5.66
2022-12-28T03:04:27.329Z,5.68
2022-12-28T03:05:27.393Z,5.68
2022-12-28T03:06:30.386Z,5.74
2022-12-28T03:07:27.287Z,5.74
2022-12-28T03:08:27.303Z,5.75
2022-12-28T03:09:27.258Z,5.75
2022-12-28T03:10:27.268Z,5.82
2022-12-28T03:11:27.244Z,5.85
2022-12-28T03:12:27.235Z,5.86
2022-12-28T03:13:27.249Z,5.86
2022-12-28T03:14:27.225Z,5.89
2022-12-28T03:15:27.342Z,5.91
2022-12-28T03:16:27.211Z,5.93
2022-12-28T03:17:27.210Z,5.95
2022-12-28T03:18:27.195Z,5.98
2022-12-28T03:19:27.201Z,6.01
2022-12-28T03:20:27.151Z,6.03
2022-12-28T03:21:27.160Z,6.01
2022-12-28T03:22:27.158Z,6.04
2022-12-28T03:23:27.123Z,6.06
2022-12-28T03:24:27.123Z,6.07
2022-12-28T03:25:27.092Z,6.07
2022-12-28T03:26:27.105Z,6.07
2022-12-28T03:27:27.097Z,6.06
2022-12-28T03:28:27.065Z,6.07
2022-12-28T03:29:27.061Z,6.10
2022-12-28T03:30:27.058Z,6.09
2022-12-28T03:31:27.117Z,6.09
2022-12-28T03:32:27.039Z,6.09
2022-12-28T03:33:27.029Z,6.09
2022-12-28T03:34:27.019Z,6.06
2022-12-28T03:35:26.991Z,6.07
2022-12-28T03:36:26.987Z,6.06
2022-12-28T03:37:26.978Z,6.06
2022-12-28T03:38:27.015Z,6.09
2022-12-28T03:39:26.950Z,6.07
2022-12-28T03:40:26.961Z,6.06
2022-12-28T03:41:26.946Z,6.06
2022-12-28T03:42:26.947Z,6.06
2022-12-28T03:43:26.938Z,6.07
2022-12-28T03:44:26.917Z,6.06
2022-12-28T03:45:46.131Z,6.07
2022-12-28T03:46:26.946Z,6.07
2022-12-28T03:47:26.888Z,6.07
2022-12-28T03:48:26.895Z,6.06
2022-12-28T03:49:26.871Z,6.06
2022-12-28T03:50:26.840Z,6.06
2022-12-28T03:51:26.825Z,6.04
2022-12-28T03:52:26.845Z,6.03
2022-12-28T03:53:26.815Z,6.03
2022-12-28T03:54:26.814Z,6.01
2022-12-28T03:55:26.796Z,6.01
2022-12-28T03:56:26.810Z,6.00
2022-12-28T03:57:26.774Z,5.96
2022-12-28T03:58:26.809Z,5.98
2022-12-28T03:59:26.746Z,5.98
2022-12-28T04:00:26.776Z,6.00
2022-12-28T04:01:26.840Z,5.96
2022-12-28T04:02:26.845Z,5.98
2022-12-28T04:03:26.768Z,5.96
2022-12-28T04:04:26.701Z,5.95
2022-12-28T04:05:26.722Z,5.95
2022-12-28T04:06:26.704Z,5.93
2022-12-28T04:07:26.661Z,5.96
2022-12-28T04:08:26.693Z,5.96
2022-12-28T04:09:26.648Z,5.95
2022-12-28T04:10:26.666Z,5.92
2022-12-28T04:11:26.614Z,5.92
2022-12-28T04:12:26.627Z,5.91
2022-12-28T04:13:26.608Z,5.92
2022-12-28T04:14:26.616Z,5.92
2022-12-28T04:15:26.605Z,5.91
2022-12-28T04:16:26.640Z,5.89
2022-12-28T04:17:26.551Z,5.91
2022-12-28T04:18:26.571Z,5.92
2022-12-28T04:19:26.540Z,5.92
2022-12-28T04:20:26.615Z,5.91
2022-12-28T04:21:26.524Z,5.92
2022-12-28T04:22:26.518Z,5.93
2022-12-28T04:23:26.524Z,5.92
2022-12-28T04:24:26.509Z,5.92
2022-12-28T04:25:26.516Z,5.92
2022-12-28T04:26:26.469Z,5.93
2022-12-28T04:27:26.481Z,5.93
2022-12-28T04:28:26.458Z,5.95
2022-12-28T04:29:26.448Z,5.93
2022-12-28T04:30:26.440Z,5.95
2022-12-28T04:31:26.496Z,5.93
2022-12-28T04:32:26.418Z,5.92
2022-12-28T04:33:26.421Z,5.91
2022-12-28T04:34:26.395Z,5.92
2022-12-28T04:35:26.411Z,5.91
2022-12-28T04:36:26.369Z,5.91
2022-12-28T04:37:26.391Z,5.91
2022-12-28T04:38:26.366Z,5.91
2022-12-28T04:39:26.330Z,5.92
2022-12-28T04:40:26.327Z,5.92
2022-12-28T04:41:26.331Z,5.96
2022-12-28T04:42:26.364Z,5.95
2022-12-28T04:43:26.284Z,5.96
2022-12-28T04:44:26.305Z,5.95
2022-12-28T04:45:26.272Z,5.95
2022-12-28T04:46:26.329Z,5.96
2022-12-28T04:47:26.251Z,5.96
2022-12-28T04:48:26.222Z,5.95
2022-12-28T04:49:26.250Z,5.92
2022-12-28T04:50:26.266Z,5.92
2022-12-28T04:51:26.194Z,5.91
2022-12-28T04:52:26.214Z,5.93
2022-12-28T04:53:26.181Z,5.95
2022-12-28T04:54:26.196Z,5.92
2022-12-28T04:55:32.873Z,5.93
2022-12-28T04:56:26.171Z,5.93
2022-12-28T04:57:26.176Z,5.92
2022-12-28T04:58:26.151Z,5.91
2022-12-28T04:59:26.116Z,5.92
2022-12-28T05:00:26.184Z,5.92
2022-12-28T05:01:26.233Z,5.92
2022-12-28T05:02:26.171Z,5.92
2022-12-28T05:03:26.094Z,5.92
2022-12-28T05:04:26.095Z,5.92
2022-12-28T05:05:26.050Z,5.91
2022-12-28T05:06:26.064Z,5.91
2022-12-28T05:07:26.031Z,5.92
2022-12-28T05:08:26.029Z,5.91
2022-12-28T05:09:26.070Z,5.89
2022-12-28T05:10:26.030Z,5.92
2022-12-28T05:11:26.000Z,5.92
2022-12-28T05:12:25.999Z,5.93
2022-12-28T05:13:25.976Z,5.93
2022-12-28T05:14:26.014Z,5.93
2022-12-28T05:15:25.938Z,5.95
2022-12-28T05:16:25.991Z,5.93
2022-12-28T05:17:25.950Z,5.95
2022-12-28T05:18:25.914Z,5.95
2022-12-28T05:19:25.899Z,5.96
2022-12-28T05:20:25.907Z,5.95
2022-12-28T05:21:25.880Z,5.95
2022-12-28T05:22:25.902Z,5.93
2022-12-28T05:23:25.855Z,5.95
2022-12-28T05:24:25.874Z,5.93
2022-12-28T05:25:25.850Z,5.95
2022-12-28T05:26:25.832Z,5.93
2022-12-28T05:27:25.854Z,5.96
2022-12-28T05:28:25.891Z,5.96
2022-12-28T05:29:25.802Z,5.96
2022-12-28T05:30:25.808Z,5.98
2022-12-28T05:31:25.837Z,5.98
2022-12-28T05:32:25.802Z,6.00
2022-12-28T05:33:25.744Z,6.00
2022-12-28T05:34:25.761Z,6.00
2022-12-28T05:35:25.726Z,6.00
2022-12-28T05:36:25.800Z,6.00
2022-12-28T05:37:25.709Z,5.98
2022-12-28T05:38:25.711Z,6.00
2022-12-28T05:39:25.704Z,6.00
2022-12-28T05:40:25.681Z,6.00
2022-12-28T05:41:25.662Z,6.01
2022-12-28T05:42:25.717Z,6.04
2022-12-28T05:43:25.653Z,6.03
2022-12-28T05:44:25.641Z,6.03
2022-12-28T05:45:25.673Z,6.03
2022-12-28T05:46:25.711Z,6.06
2022-12-28T05:47:25.604Z,6.04
2022-12-28T05:48:25.655Z,6.04
2022-12-28T05:49:25.581Z,6.06
2022-12-28T05:50:25.561Z,6.06
2022-12-28T05:51:25.574Z,6.07
2022-12-28T05:52:25.570Z,6.06
2022-12-28T05:53:25.561Z,6.09
2022-12-28T05:54:25.535Z,6.09
2022-12-28T05:55:25.583Z,6.07
2022-12-28T05:56:25.514Z,6.10
2022-12-28T05:57:25.522Z,6.10
2022-12-28T05:58:25.479Z,6.10
2022-12-28T05:59:25.487Z,6.13
2022-12-28T06:00:25.458Z,6.11
2022-12-28T06:01:25.566Z,6.13
2022-12-28T06:02:25.625Z,6.11
2022-12-28T06:03:25.521Z,6.13
2022-12-28T06:04:25.416Z,6.14
2022-12-28T06:05:25.413Z,6.14
2022-12-28T06:06:25.407Z,6.18
2022-12-28T06:07:25.421Z,6.21
2022-12-28T06:08:25.381Z,6.21
2022-12-28T06:09:25.403Z,6.22
2022-12-28T06:10:25.366Z,6.25
2022-12-28T06:11:25.352Z,6.26
2022-12-28T06:12:25.354Z,6.28
2022-12-28T06:13:25.331Z,6.28
2022-12-28T06:14:25.309Z,6.29
2022-12-28T06:15:25.307Z,6.29
2022-12-28T06:16:25.367Z,6.30
2022-12-28T06:17:25.298Z,6.30
2022-12-28T06:18:25.274Z,6.30
2022-12-28T06:19:25.274Z,6.32
2022-12-28T06:20:25.251Z,6.33
2022-12-28T06:21:25.253Z,6.33
2022-12-28T06:22:25.254Z,6.35
2022-12-28T06:23:25.222Z,6.38
2022-12-28T06:24:25.210Z,6.36
2022-12-28T06:25:25.215Z,6.36
2022-12-28T06:26:25.205Z,6.36
2022-12-28T06:27:25.220Z,6.38
2022-12-28T06:28:25.160Z,6.40
2022-12-28T06:29:25.167Z,6.41
2022-12-28T06:30:25.138Z,6.40
2022-12-28T06:31:25.236Z,6.43
2022-12-28T06:32:25.154Z,6.40
2022-12-28T06:33:25.144Z,6.40
2022-12-28T06:34:25.092Z,6.40
2022-12-28T06:35:25.112Z,6.41
2022-12-28T06:36:25.091Z,6.41
2022-12-28T06:37:25.082Z,6.40
2022-12-28T06:38:25.047Z,6.43
2022-12-28T06:39:25.054Z,6.44
2022-12-28T06:40:39.444Z,6.46
2022-12-28T06:41:25.055Z,6.47
2022-12-28T06:42:25.055Z,6.48
2022-12-28T06:43:25.027Z,6.46
2022-12-28T06:44:25.016Z,6.50
2022-12-28T06:45:24.975Z,6.50
2022-12-28T06:46:24.984Z,6.48
2022-12-28T06:47:24.981Z,6.50
2022-12-28T06:48:24.972Z,6.51
2022-12-28T06:49:24.954Z,6.54
2022-12-28T06:50:24.923Z,6.53
2022-12-28T06:51:24.968Z,6.54
2022-12-28T06:52:24.981Z,6.54
2022-12-28T06:53:24.915Z,6.56
2022-12-28T06:54:24.907Z,6.58
2022-12-28T06:55:24.872Z,6.56
2022-12-28T06:56:24.898Z,6.56
2022-12-28T06:57:24.844Z,6.58
2022-12-28T06:58:24.832Z,6.59
2022-12-28T06:59:24.837Z,6.58
2022-12-28T07:00:24.827Z,6.58
2022-12-28T07:01:24.955Z,6.59
2022-12-28T07:02:24.983Z,6.61
2022-12-28T07:03:24.795Z,6.61
2022-12-28T07:04:24.769Z,6.62
2022-12-28T07:05:24.777Z,6.62
2022-12-28T07:06:24.820Z,6.65
2022-12-28T07:07:24.762Z,6.63
2022-12-28T07:08:24.732Z,6.65
2022-12-28T07:09:24.730Z,6.65
2022-12-28T07:10:24.747Z,6.65
2022-12-28T07:11:24.705Z,6.63
2022-12-28T07:12:24.722Z,6.65
2022-12-28T07:13:28.352Z,6.65
2022-12-28T07:14:24.623Z,6.65
2022-12-28T07:15:24.661Z,6.68
2022-12-28T07:16:24.696Z,6.69
2022-12-28T07:17:24.610Z,6.68
2022-12-28T07:18:24.582Z,6.68
2022-12-28T07:19:24.581Z,6.66
2022-12-28T07:20:24.586Z,6.66
2022-12-28T07:21:24.538Z,6.68
2022-12-28T07:22:24.555Z,6.68
2022-12-28T07:23:24.515Z,6.66
2022-12-28T07:24:24.493Z,6.68
2022-12-28T07:25:24.512Z,6.66
2022-12-28T07:26:24.477Z,6.68
2022-12-28T07:27:24.502Z,6.68
2022-12-28T07:28:24.462Z,6.69
2022-12-28T07:29:24.454Z,6.72
2022-12-28T07:30:24.871Z,6.73
2022-12-28T07:31:24.527Z,6.73
2022-12-28T07:32:24.448Z,6.73
2022-12-28T07:33:24.433Z,6.77
2022-12-28T07:34:24.427Z,6.76
2022-12-28T07:35:24.402Z,6.77
2022-12-28T07:36:24.382Z,6.80
2022-12-28T07:37:24.373Z,6.77
2022-12-28T07:38:24.375Z,6.79
2022-12-28T07:39:24.353Z,6.80
2022-12-28T07:40:24.341Z,6.81
2022-12-28T07:41:24.360Z,6.80
2022-12-28T07:42:24.316Z,6.83
2022-12-28T07:43:24.504Z,6.83
2022-12-28T07:44:27.970Z,6.83
2022-12-28T07:45:24.306Z,6.83
2022-12-28T07:46:24.304Z,6.83
2022-12-28T07:47:24.278Z,6.81
2022-12-28T07:48:24.266Z,6.80
2022-12-28T07:49:24.278Z,6.83
2022-12-28T07:50:24.340Z,6.84
2022-12-28T07:51:24.215Z,6.84
2022-12-28T07:52:24.226Z,6.83
2022-12-28T07:53:24.298Z,6.81
2022-12-28T07:54:24.197Z,6.86
2022-12-28T07:55:24.214Z,6.84
2022-12-28T07:56:24.169Z,6.86
2022-12-28T07:57:24.173Z,6.86
2022-12-28T07:58:24.175Z,6.84
2022-12-28T07:59:30.613Z,6.84
2022-12-28T08:00:24.127Z,6.84
2022-12-28T08:01:24.301Z,6.89
2022-12-28T08:02:24.238Z,6.90
2022-12-28T08:03:24.176Z,6.89
2022-12-28T08:04:24.213Z,6.91
2022-12-28T08:05:24.073Z,6.95
2022-12-28T08:06:24.052Z,6.97
2022-12-28T08:07:24.065Z,6.95
2022-12-28T08:08:24.050Z,6.95
2022-12-28T08:09:24.063Z,6.94
2022-12-28T08:10:24.036Z,6.94
2022-12-28T08:11:24.025Z,6.95
2022-12-28T08:12:24.004Z,6.95
2022-12-28T08:13:24.119Z,6.95
2022-12-28T08:14:23.987Z,6.98
2022-12-28T08:15:23.989Z,6.97
2022-12-28T08:16:24.012Z,6.95
2022-12-28T08:17:23.950Z,6.95
2022-12-28T08:18:23.956Z,6.95
2022-12-28T08:19:23.939Z,6.95
2022-12-28T08:20:23.916Z,6.98
2022-12-28T08:21:23.908Z,6.99
2022-12-28T08:22:23.975Z,6.99
2022-12-28T08:23:23.890Z,6.99
2022-12-28T08:24:23.891Z,6.99
2022-12-28T08:25:23.883Z,6.99
2022-12-28T08:26:23.863Z,7.01
2022-12-28T08:27:23.844Z,7.01
2022-12-28T08:28:23.873Z,7.01
2022-12-28T08:29:23.852Z,7.04
2022-12-28T08:30:23.820Z,7.02
2022-12-28T08:31:23.943Z,7.04
2022-12-28T08:32:23.797Z,7.04
2022-12-28T08:33:23.781Z,7.08
2022-12-28T08:34:23.791Z,7.04
2022-12-28T08:35:23.765Z,7.08
2022-12-28T08:36:23.752Z,7.07
2022-12-28T08:37:23.739Z,7.05
2022-12-28T08:38:23.718Z,7.07
2022-12-28T08:39:23.746Z,7.08
2022-12-28T08:40:23.727Z,7.12
2022-12-28T08:41:23.721Z,7.12
2022-12-28T08:42:23.731Z,7.12
2022-12-28T08:43:23.699Z,7.12
2022-12-28T08:44:23.677Z,7.09
2022-12-28T08:45:23.666Z,7.12
2022-12-28T08:46:23.708Z,7.09
2022-12-28T08:47:23.657Z,7.15
2022-12-28T08:48:23.619Z,7.15
2022-12-28T08:49:23.623Z,7.15
2022-12-28T08:50:29.566Z,7.16
2022-12-28T08:51:23.634Z,7.16
2022-12-28T08:52:23.583Z,7.16
2022-12-28T08:53:23.599Z,7.15
2022-12-28T08:54:23.575Z,7.17
2022-12-28T08:55:23.556Z,7.17
2022-12-28T08:56:23.536Z,7.20
2022-12-28T08:57:23.777Z,7.20
2022-12-28T08:58:23.594Z,7.19
2022-12-28T08:59:23.695Z,7.22
2022-12-28T09:00:23.556Z,7.22
2022-12-28T09:01:23.725Z,7.22
2022-12-28T09:02:23.918Z,7.23
2022-12-28T09:03:23.572Z,7.24
2022-12-28T09:04:23.471Z,7.24
2022-12-28T09:05:23.452Z,7.23
2022-12-28T09:06:23.456Z,7.22
2022-12-28T09:07:23.454Z,7.22
2022-12-28T09:08:23.503Z,7.23
2022-12-28T09:09:23.424Z,7.20
2022-12-28T09:10:23.414Z,7.20
2022-12-28T09:11:23.429Z,7.22
2022-12-28T09:12:23.381Z,7.22
2022-12-28T09:13:23.362Z,7.23
2022-12-28T09:14:24.613Z,7.22
2022-12-28T09:15:23.362Z,7.20
2022-12-28T09:16:23.365Z,7.23
2022-12-28T09:17:23.379Z,7.22
2022-12-28T09:18:23.326Z,7.22
2022-12-28T09:19:23.348Z,7.23
2022-12-28T09:20:23.342Z,7.22
2022-12-28T09:21:23.274Z,7.23
2022-12-28T09:22:23.284Z,7.23
2022-12-28T09:23:23.259Z,7.23
2022-12-28T09:24:23.240Z,7.26
2022-12-28T09:25:23.228Z,7.26
2022-12-28T09:26:23.212Z,7.29
2022-12-28T09:27:23.233Z,7.27
2022-12-28T09:28:23.225Z,7.32
2022-12-28T09:29:23.227Z,7.32
2022-12-28T09:30:23.231Z,7.31
2022-12-28T09:31:23.232Z,7.32
2022-12-28T09:32:23.163Z,7.32
2022-12-28T09:33:23.172Z,7.31
2022-12-28T09:34:35.383Z,7.32
2022-12-28T09:35:23.136Z,7.34
2022-12-28T09:36:23.142Z,7.31
2022-12-28T09:37:23.103Z,7.35
2022-12-28T09:38:23.087Z,7.35
2022-12-28T09:39:23.180Z,7.40
2022-12-28T09:40:23.129Z,7.42
2022-12-28T09:41:23.086Z,7.42
2022-12-28T09:42:23.071Z,7.40
2022-12-28T09:43:23.052Z,7.37
2022-12-28T09:44:23.034Z,7.40
2022-12-28T09:45:23.043Z,7.41
2022-12-28T09:46:23.034Z,7.41
2022-12-28T09:47:23.003Z,7.41
2022-12-28T09:48:22.977Z,7.42
2022-12-28T09:49:22.969Z,7.45
2022-12-28T09:50:22.951Z,7.44
2022-12-28T09:51:22.954Z,7.44
2022-12-28T09:52:22.974Z,7.42
2022-12-28T09:53:22.965Z,7.45
2022-12-28T09:54:22.922Z,7.44
2022-12-28T09:55:22.951Z,7.49
2022-12-28T09:56:22.939Z,7.47
2022-12-28T09:57:22.885Z,7.47
2022-12-28T09:58:22.861Z,7.44
2022-12-28T09:59:22.869Z,7.47
2022-12-28T10:00:22.882Z,7.49
2022-12-28T10:01:22.967Z,7.50
2022-12-28T10:02:22.939Z,7.55
2022-12-28T10:03:22.924Z,7.55
2022-12-28T10:04:22.821Z,7.52
2022-12-28T10:05:22.814Z,7.56
2022-12-28T10:06:22.802Z,7.53
2022-12-28T10:07:22.763Z,7.56
2022-12-28T10:08:22.776Z,7.58
2022-12-28T10:09:22.782Z,7.59
2022-12-28T10:10:22.805Z,7.59
2022-12-28T10:11:22.748Z,7.56
2022-12-28T10:12:22.722Z,7.58
2022-12-28T10:13:53.563Z,7.62
2022-12-28T10:14:22.727Z,7.60
2022-12-28T10:15:22.698Z,7.60
2022-12-28T10:16:22.851Z,7.62
2022-12-28T10:17:22.695Z,7.62
2022-12-28T10:18:22.672Z,7.66
2022-12-28T10:19:22.659Z,7.62
2022-12-28T10:20:22.670Z,7.63
2022-12-28T10:21:28.424Z,7.60
2022-12-28T10:22:22.654Z,7.62
2022-12-28T10:23:22.618Z,7.62
2022-12-28T10:24:31.808Z,7.62
2022-12-28T10:25:22.613Z,7.63
2022-12-28T10:26:22.647Z,7.63
2022-12-28T10:27:22.561Z,7.62
2022-12-28T10:28:22.614Z,7.62
2022-12-28T10:29:22.546Z,7.66
2022-12-28T10:30:22.687Z,7.66
2022-12-28T10:31:22.564Z,7.67
2022-12-28T10:32:22.595Z,7.66
2022-12-28T10:33:22.503Z,7.66
2022-12-28T10:34:22.542Z,7.67
2022-12-28T10:35:22.509Z,7.67
2022-12-28T10:36:24.639Z,7.66
2022-12-28T10:37:22.477Z,7.69
2022-12-28T10:38:22.462Z,7.69
2022-12-28T10:39:22.433Z,7.71
2022-12-28T10:40:22.432Z,7.72
2022-12-28T10:41:22.415Z,7.71
2022-12-28T10:42:22.437Z,7.72
2022-12-28T10:43:22.430Z,7.72
2022-12-28T10:44:38.931Z,7.75
2022-12-28T10:45:22.393Z,7.72
2022-12-28T10:46:22.469Z,7.74
2022-12-28T10:47:22.370Z,7.74
2022-12-28T10:48:22.371Z,7.75
2022-12-28T10:49:22.377Z,7.75
2022-12-28T11:03:21.745Z,7.77
2022-12-28T11:03:26.452Z,7.79
2022-12-28T11:03:31.446Z,7.85
2022-12-28T11:04:31.384Z,7.87
2022-12-28T11:05:31.393Z,7.89
2022-12-28T11:06:31.378Z,7.87
2022-12-28T11:07:31.367Z,7.90
2022-12-28T11:08:31.349Z,7.92
2022-12-28T11:09:31.379Z,7.90
2022-12-28T11:10:33.050Z,7.92
2022-12-28T11:11:31.319Z,7.94
2022-12-28T11:12:31.292Z,7.89
2022-12-28T11:13:31.399Z,7.90
2022-12-28T11:14:31.301Z,7.92
2022-12-28T11:15:31.289Z,7.93
2022-12-28T11:16:31.361Z,7.93
2022-12-28T11:17:31.281Z,7.92
2022-12-28T11:18:37.705Z,7.89
2022-12-28T11:19:31.234Z,7.92
2022-12-28T11:20:31.213Z,7.93
2022-12-28T11:21:31.223Z,7.92
2022-12-28T11:22:31.218Z,7.92
2022-12-28T11:23:31.190Z,7.90
2022-12-28T11:24:37.647Z,7.93
2022-12-28T11:25:31.234Z,7.93
2022-12-28T11:26:31.163Z,7.92
2022-12-28T11:27:31.141Z,7.96
2022-12-28T11:28:31.138Z,7.94
2022-12-28T11:29:31.187Z,7.97
2022-12-28T11:30:31.111Z,7.94
2022-12-28T11:31:31.164Z,7.94
2022-12-28T11:32:31.115Z,7.93
2022-12-28T11:33:31.118Z,7.96
2022-12-28T11:34:31.096Z,8.00
2022-12-28T11:35:31.100Z,7.99
2022-12-28T11:36:31.060Z,7.96
2022-12-28T11:37:31.074Z,7.97
2022-12-28T11:38:31.027Z,8.00
2022-12-28T11:39:31.032Z,7.99
2022-12-28T11:40:31.008Z,8.03
2022-12-28T11:41:33.894Z,8.03
2022-12-28T11:42:40.014Z,8.03
2022-12-28T11:43:31.004Z,8.03
2022-12-28T11:44:30.997Z,8.04
2022-12-28T11:45:31.054Z,8.03
2022-12-28T11:46:30.974Z,8.04
2022-12-28T11:47:30.974Z,8.03
2022-12-28T11:48:30.918Z,8.04
2022-12-28T11:49:30.935Z,8.04
2022-12-28T11:50:30.903Z,8.07
2022-12-28T11:51:30.903Z,8.10
2022-12-28T11:52:30.920Z,8.11
2022-12-28T11:53:30.906Z,8.08
2022-12-28T11:54:30.871Z,8.08
2022-12-28T11:55:30.856Z,8.08
2022-12-28T11:56:30.841Z,8.10
2022-12-28T11:57:30.839Z,8.08
2022-12-28T11:58:30.869Z,8.08
2022-12-28T11:59:30.808Z,8.07
2022-12-28T12:00:30.829Z,8.08
2022-12-28T12:01:31.054Z,8.07
2022-12-28T12:02:30.809Z,8.07
2022-12-28T12:03:30.791Z,8.04
2022-12-28T12:04:30.783Z,8.07
2022-12-28T12:05:30.762Z,8.07
2022-12-28T12:06:34.135Z,8.04
2022-12-28T12:07:32.335Z,8.03
2022-12-28T12:08:30.712Z,8.03
2022-12-28T12:09:30.736Z,8.07
2022-12-28T12:10:30.696Z,8.02
2022-12-28T12:11:30.692Z,8.02
2022-12-28T12:12:30.732Z,8.03
2022-12-28T12:13:30.669Z,8.04
2022-12-28T12:14:30.693Z,8.04
2022-12-28T12:15:30.677Z,8.07
2022-12-28T12:16:30.685Z,8.04
2022-12-28T12:17:30.649Z,8.07
2022-12-28T12:18:30.660Z,8.08
2022-12-28T12:19:30.629Z,8.08
2022-12-28T12:20:30.598Z,8.08
2022-12-28T12:21:30.650Z,8.10
2022-12-28T12:22:30.652Z,8.10
2022-12-28T12:23:30.729Z,8.11
2022-12-28T12:24:30.567Z,8.12
2022-12-28T12:25:30.559Z,8.11
2022-12-28T12:26:30.535Z,8.11
2022-12-28T12:27:30.582Z,8.11
2022-12-28T12:28:30.523Z,8.10
2022-12-28T12:29:30.547Z,8.11
2022-12-28T12:30:30.564Z,8.11
2022-12-28T12:31:30.474Z,8.11
2022-12-28T12:32:30.474Z,8.11
2022-12-28T12:33:30.507Z,8.11
2022-12-28T12:34:30.462Z,8.10
2022-12-28T12:35:30.452Z,8.08
2022-12-28T12:36:30.428Z,8.08
2022-12-28T12:37:30.455Z,8.10
2022-12-28T12:38:30.401Z,8.10
2022-12-28T12:39:30.423Z,8.08
2022-12-28T12:40:30.387Z,8.07
2022-12-28T12:41:30.405Z,8.07
2022-12-28T12:42:30.379Z,8.03
2022-12-28T12:43:30.387Z,8.04
2022-12-28T12:44:30.367Z,8.04
2022-12-28T12:45:30.391Z,8.04
2022-12-28T12:46:30.404Z,8.04
2022-12-28T12:47:30.339Z,8.04
2022-12-28T12:48:30.327Z,8.03
2022-12-28T12:49:30.345Z,8.02
2022-12-28T12:50:30.273Z,8.02
2022-12-28T12:51:30.268Z,8.00
2022-12-28T12:52:30.258Z,8.00
2022-12-28T12:53:30.253Z,8.03
2022-12-28T12:54:30.253Z,8.03
2022-12-28T12:55:30.226Z,8.03
2022-12-28T12:56:30.255Z,8.04
2022-12-28T12:57:30.216Z,8.03
2022-12-28T12:58:30.206Z,8.04
2022-12-28T12:59:30.194Z,8.04
2022-12-28T13:00:30.191Z,8.07
2022-12-28T13:01:30.405Z,8.08
2022-12-28T13:02:30.288Z,8.07
2022-12-28T13:03:30.193Z,8.08
2022-12-28T13:04:30.120Z,8.08
2022-12-28T13:05:30.154Z,8.10
2022-12-28T13:06:30.137Z,8.08
2022-12-28T13:07:30.104Z,8.11
2022-12-28T13:08:30.088Z,8.11
2022-12-28T13:09:30.095Z,8.12
2022-12-28T13:10:30.250Z,8.08
2022-12-28T13:11:30.144Z,8.10
2022-12-28T13:12:30.047Z,8.11
2022-12-28T13:13:30.042Z,8.11
2022-12-28T13:14:30.035Z,8.12
2022-12-28T13:15:30.139Z,8.12
2022-12-28T13:16:30.069Z,8.14
2022-12-28T13:17:30.037Z,8.14
2022-12-28T13:18:45.996Z,8.12
2022-12-28T13:19:29.991Z,8.14
2022-12-28T13:20:29.984Z,8.15
2022-12-28T13:21:29.949Z,8.11
2022-12-28T13:22:29.954Z,8.11
2022-12-28T13:23:29.950Z,8.12
2022-12-28T13:24:39.036Z,8.10
2022-12-28T13:25:29.917Z,8.11
2022-12-28T13:26:29.958Z,8.11
2022-12-28T13:27:29.902Z,8.10
2022-12-28T13:28:29.971Z,8.08
2022-12-28T13:29:29.916Z,8.12